sensor_id;sensor_type;location;lat;lon;timestamp;temperature;humidity
8832;DHT22;4452;50.756;4.472;2023-05-29T00:00:21;14.00;99.90
8832;DHT22;4452;50.756;4.472;2023-05-29T00:02:48;14.00;99.90
8832;DHT22;4452;50.756;4.472;2023-05-29T00:05:14;13.90;99.90
8832;DHT22;4452;50.756;4.472;2023-05-29T00:07:41;13.90;99.90
8832;DHT22;4452;50.756;4.472;2023-05-29T00:10:08;13.70;99.90
8832;DHT22;4452;50.756;4.472;2023-05-29T00:12:34;13.80;99.90
8832;DHT22;4452;50.756;4.472;2023-05-29T00:15:01;13.70;99.90
8832;DHT22;4452;50.756;4.472;2023-05-29T00:17:26;13.70;99.90
8832;DHT22;4452;50.756;4.472;2023-05-29T00:19:53;13.60;99.90
8832;DHT22;4452;50.756;4.472;2023-05-29T00:22:18;13.70;99.90
8832;DHT22;4452;50.756;4.472;2023-05-29T00:24:44;13.50;99.90
8832;DHT22;4452;50.756;4.472;2023-05-29T00:27:10;13.70;99.90
8832;DHT22;4452;50.756;4.472;2023-05-29T00:29:39;13.50;99.90
8832;DHT22;4452;50.756;4.472;2023-05-29T00:32:05;13.70;99.90
8832;DHT22;4452;50.756;4.472;2023-05-29T00:34:31;13.50;99.90
8832;DHT22;4452;50.756;4.472;2023-05-29T00:36:56;13.50;99.90
8832;DHT22;4452;50.756;4.472;2023-05-29T00:39:22;13.40;99.90
8832;DHT22;4452;50.756;4.472;2023-05-29T00:41:48;13.30;99.90
8832;DHT22;4452;50.756;4.472;2023-05-29T00:44:18;13.30;99.90
8832;DHT22;4452;50.756;4.472;2023-05-29T00:46:48;13.30;99.90
8832;DHT22;4452;50.756;4.472;2023-05-29T00:49:14;13.20;99.90
8832;DHT22;4452;50.756;4.472;2023-05-29T00:51:41;13.10;99.90
8832;DHT22;4452;50.756;4.472;2023-05-29T00:54:07;13.30;99.90
8832;DHT22;4452;50.756;4.472;2023-05-29T00:56:39;13.00;99.90
8832;DHT22;4452;50.756;4.472;2023-05-29T00:59:05;13.00;99.90
8832;DHT22;4452;50.756;4.472;2023-05-29T01:01:31;13.00;99.90
8832;DHT22;4452;50.756;4.472;2023-05-29T01:03:59;13.10;99.90
8832;DHT22;4452;50.756;4.472;2023-05-29T01:06:26;13.00;99.90
8832;DHT22;4452;50.756;4.472;2023-05-29T01:08:52;12.80;99.90
8832;DHT22;4452;50.756;4.472;2023-05-29T01:14:02;12.70;99.90
8832;DHT22;4452;50.756;4.472;2023-05-29T01:16:38;12.70;99.90
8832;DHT22;4452;50.756;4.472;2023-05-29T01:24:49;12.50;99.90
8832;DHT22;4452;50.756;4.472;2023-05-29T01:27:21;12.50;99.90
8832;DHT22;4452;50.756;4.472;2023-05-29T01:29:51;12.50;99.90
8832;DHT22;4452;50.756;4.472;2023-05-29T01:32:18;12.60;99.90
8832;DHT22;4452;50.756;4.472;2023-05-29T01:34:44;12.30;99.90
8832;DHT22;4452;50.756;4.472;2023-05-29T01:37:09;12.70;99.90
8832;DHT22;4452;50.756;4.472;2023-05-29T01:39:35;12.20;99.90
8832;DHT22;4452;50.756;4.472;2023-05-29T01:42:01;12.30;99.90
8832;DHT22;4452;50.756;4.472;2023-05-29T01:44:28;12.10;99.90
8832;DHT22;4452;50.756;4.472;2023-05-29T01:46:55;12.20;99.90
8832;DHT22;4452;50.756;4.472;2023-05-29T01:49:23;12.20;99.90
8832;DHT22;4452;50.756;4.472;2023-05-29T01:51:49;12.10;99.90
8832;DHT22;4452;50.756;4.472;2023-05-29T01:54:15;12.50;99.90
8832;DHT22;4452;50.756;4.472;2023-05-29T01:56:42;12.00;99.90
8832;DHT22;4452;50.756;4.472;2023-05-29T01:59:10;12.20;99.90
8832;DHT22;4452;50.756;4.472;2023-05-29T02:01:39;12.30;99.90
8832;DHT22;4452;50.756;4.472;2023-05-29T02:04:05;11.80;99.90
8832;DHT22;4452;50.756;4.472;2023-05-29T02:06:31;12.00;99.90
8832;DHT22;4452;50.756;4.472;2023-05-29T02:08:58;12.10;99.90
8832;DHT22;4452;50.756;4.472;2023-05-29T02:11:24;11.70;99.90
8832;DHT22;4452;50.756;4.472;2023-05-29T02:13:51;12.00;99.90
8832;DHT22;4452;50.756;4.472;2023-05-29T02:16:17;12.20;99.90
8832;DHT22;4452;50.756;4.472;2023-05-29T02:18:46;11.80;99.90
8832;DHT22;4452;50.756;4.472;2023-05-29T02:21:11;12.10;99.90
8832;DHT22;4452;50.756;4.472;2023-05-29T02:23:37;11.70;99.90
8832;DHT22;4452;50.756;4.472;2023-05-29T02:26:04;11.70;99.90
8832;DHT22;4452;50.756;4.472;2023-05-29T02:28:30;11.60;99.90
8832;DHT22;4452;50.756;4.472;2023-05-29T02:30:55;11.60;99.90
8832;DHT22;4452;50.756;4.472;2023-05-29T02:33:21;12.00;99.90
8832;DHT22;4452;50.756;4.472;2023-05-29T02:35:47;11.60;99.90
8832;DHT22;4452;50.756;4.472;2023-05-29T02:38:12;11.70;99.90
8832;DHT22;4452;50.756;4.472;2023-05-29T02:40:39;11.60;99.90
8832;DHT22;4452;50.756;4.472;2023-05-29T02:43:05;11.60;99.90
8832;DHT22;4452;50.756;4.472;2023-05-29T02:45:31;11.60;99.90
8832;DHT22;4452;50.756;4.472;2023-05-29T02:47:57;11.60;99.90
8832;DHT22;4452;50.756;4.472;2023-05-29T02:50:22;11.50;99.90
8832;DHT22;4452;50.756;4.472;2023-05-29T02:52:48;11.70;99.90
8832;DHT22;4452;50.756;4.472;2023-05-29T02:55:14;11.40;99.90
8832;DHT22;4452;50.756;4.472;2023-05-29T02:57:40;11.40;99.90
8832;DHT22;4452;50.756;4.472;2023-05-29T03:00:07;11.70;99.90
8832;DHT22;4452;50.756;4.472;2023-05-29T03:02:33;11.40;99.90
8832;DHT22;4452;50.756;4.472;2023-05-29T03:05:00;11.40;99.90
8832;DHT22;4452;50.756;4.472;2023-05-29T03:07:26;11.50;99.90
8832;DHT22;4452;50.756;4.472;2023-05-29T03:09:52;11.30;99.90
8832;DHT22;4452;50.756;4.472;2023-05-29T03:12:17;11.40;99.90
8832;DHT22;4452;50.756;4.472;2023-05-29T03:14:44;11.50;99.90
8832;DHT22;4452;50.756;4.472;2023-05-29T03:17:10;11.00;99.90
8832;DHT22;4452;50.756;4.472;2023-05-29T03:19:36;10.90;99.90
8832;DHT22;4452;50.756;4.472;2023-05-29T03:22:03;11.00;99.90
8832;DHT22;4452;50.756;4.472;2023-05-29T03:24:28;11.00;99.90
8832;DHT22;4452;50.756;4.472;2023-05-29T03:26:54;11.30;99.90
8832;DHT22;4452;50.756;4.472;2023-05-29T03:29:21;10.80;99.90
8832;DHT22;4452;50.756;4.472;2023-05-29T03:31:47;11.10;99.90
8832;DHT22;4452;50.756;4.472;2023-05-29T03:34:12;10.70;99.90
8832;DHT22;4452;50.756;4.472;2023-05-29T03:36:39;10.60;99.90
8832;DHT22;4452;50.756;4.472;2023-05-29T03:39:04;10.80;99.90
8832;DHT22;4452;50.756;4.472;2023-05-29T03:41:30;10.60;99.90
8832;DHT22;4452;50.756;4.472;2023-05-29T03:43:56;10.60;99.90
8832;DHT22;4452;50.756;4.472;2023-05-29T03:46:21;10.70;99.90
8832;DHT22;4452;50.756;4.472;2023-05-29T03:48:47;10.50;99.90
8832;DHT22;4452;50.756;4.472;2023-05-29T03:51:12;10.60;99.90
8832;DHT22;4452;50.756;4.472;2023-05-29T03:53:38;10.40;99.90
8832;DHT22;4452;50.756;4.472;2023-05-29T03:56:04;10.20;99.90
8832;DHT22;4452;50.756;4.472;2023-05-29T03:58:30;10.30;99.90
8832;DHT22;4452;50.756;4.472;2023-05-29T04:00:55;10.30;99.90
8832;DHT22;4452;50.756;4.472;2023-05-29T04:03:21;10.00;99.90
8832;DHT22;4452;50.756;4.472;2023-05-29T04:05:47;10.70;99.90
8832;DHT22;4452;50.756;4.472;2023-05-29T04:08:13;10.10;99.90
8832;DHT22;4452;50.756;4.472;2023-05-29T04:10:39;10.20;99.90
8832;DHT22;4452;50.756;4.472;2023-05-29T04:13:04;10.10;99.90
8832;DHT22;4452;50.756;4.472;2023-05-29T04:15:31;10.20;99.90
8832;DHT22;4452;50.756;4.472;2023-05-29T04:17:59;10.20;99.90
8832;DHT22;4452;50.756;4.472;2023-05-29T04:20:25;10.10;99.90
8832;DHT22;4452;50.756;4.472;2023-05-29T04:22:51;10.20;99.90
8832;DHT22;4452;50.756;4.472;2023-05-29T04:25:16;10.20;99.90
8832;DHT22;4452;50.756;4.472;2023-05-29T04:27:43;10.20;99.90
8832;DHT22;4452;50.756;4.472;2023-05-29T04:30:15;10.50;99.90
8832;DHT22;4452;50.756;4.472;2023-05-29T04:32:41;10.20;99.90
8832;DHT22;4452;50.756;4.472;2023-05-29T04:35:07;10.30;99.90
8832;DHT22;4452;50.756;4.472;2023-05-29T04:37:33;10.30;99.90
8832;DHT22;4452;50.756;4.472;2023-05-29T04:40:04;10.50;99.90
8832;DHT22;4452;50.756;4.472;2023-05-29T04:42:35;10.30;99.90
8832;DHT22;4452;50.756;4.472;2023-05-29T04:45:01;10.30;99.90
8832;DHT22;4452;50.756;4.472;2023-05-29T04:47:27;10.70;99.90
8832;DHT22;4452;50.756;4.472;2023-05-29T04:49:54;10.30;99.90
8832;DHT22;4452;50.756;4.472;2023-05-29T04:52:19;10.40;99.90
8832;DHT22;4452;50.756;4.472;2023-05-29T04:54:46;10.40;99.90
8832;DHT22;4452;50.756;4.472;2023-05-29T04:57:12;10.60;99.90
8832;DHT22;4452;50.756;4.472;2023-05-29T04:59:38;10.30;99.90
8832;DHT22;4452;50.756;4.472;2023-05-29T05:02:04;10.40;99.90
8832;DHT22;4452;50.756;4.472;2023-05-29T05:04:30;10.70;99.90
8832;DHT22;4452;50.756;4.472;2023-05-29T05:06:55;10.80;99.90
8832;DHT22;4452;50.756;4.472;2023-05-29T05:09:21;10.80;99.90
8832;DHT22;4452;50.756;4.472;2023-05-29T05:11:46;10.30;99.90
8832;DHT22;4452;50.756;4.472;2023-05-29T05:14:12;10.80;99.90
8832;DHT22;4452;50.756;4.472;2023-05-29T05:16:38;10.60;99.90
8832;DHT22;4452;50.756;4.472;2023-05-29T05:19:03;10.80;99.90
8832;DHT22;4452;50.756;4.472;2023-05-29T05:21:29;10.80;99.90
8832;DHT22;4452;50.756;4.472;2023-05-29T05:23:57;10.90;99.90
8832;DHT22;4452;50.756;4.472;2023-05-29T05:26:22;10.80;99.90
8832;DHT22;4452;50.756;4.472;2023-05-29T05:28:48;10.70;99.90
8832;DHT22;4452;50.756;4.472;2023-05-29T05:31:14;10.80;99.90
8832;DHT22;4452;50.756;4.472;2023-05-29T05:33:40;11.30;99.90
8832;DHT22;4452;50.756;4.472;2023-05-29T05:36:05;11.30;99.90
8832;DHT22;4452;50.756;4.472;2023-05-29T05:38:32;11.20;99.90
8832;DHT22;4452;50.756;4.472;2023-05-29T05:40:58;11.10;99.90
8832;DHT22;4452;50.756;4.472;2023-05-29T05:43:23;11.40;99.90
8832;DHT22;4452;50.756;4.472;2023-05-29T05:45:49;11.30;99.90
8832;DHT22;4452;50.756;4.472;2023-05-29T05:48:15;11.50;99.90
8832;DHT22;4452;50.756;4.472;2023-05-29T05:50:41;11.30;99.90
8832;DHT22;4452;50.756;4.472;2023-05-29T05:53:06;11.50;99.90
8832;DHT22;4452;50.756;4.472;2023-05-29T05:55:32;11.40;99.90
8832;DHT22;4452;50.756;4.472;2023-05-29T05:57:58;11.50;99.90
8832;DHT22;4452;50.756;4.472;2023-05-29T06:00:23;11.70;99.90
8832;DHT22;4452;50.756;4.472;2023-05-29T06:02:49;11.80;99.90
8832;DHT22;4452;50.756;4.472;2023-05-29T06:05:15;11.80;99.90
8832;DHT22;4452;50.756;4.472;2023-05-29T06:07:41;11.70;99.90
8832;DHT22;4452;50.756;4.472;2023-05-29T06:10:07;11.60;99.90
8832;DHT22;4452;50.756;4.472;2023-05-29T06:12:33;11.60;99.90
8832;DHT22;4452;50.756;4.472;2023-05-29T06:14:59;11.50;99.90
8832;DHT22;4452;50.756;4.472;2023-05-29T06:17:25;12.10;99.90
8832;DHT22;4452;50.756;4.472;2023-05-29T06:19:52;11.90;99.90
8832;DHT22;4452;50.756;4.472;2023-05-29T06:22:19;12.30;99.90
8832;DHT22;4452;50.756;4.472;2023-05-29T06:24:48;12.20;99.90
8832;DHT22;4452;50.756;4.472;2023-05-29T06:27:18;12.20;99.90
8832;DHT22;4452;50.756;4.472;2023-05-29T06:29:47;12.10;99.90
8832;DHT22;4452;50.756;4.472;2023-05-29T06:32:15;11.90;99.90
8832;DHT22;4452;50.756;4.472;2023-05-29T06:34:42;11.90;99.90
8832;DHT22;4452;50.756;4.472;2023-05-29T06:37:07;12.20;99.90
8832;DHT22;4452;50.756;4.472;2023-05-29T06:39:34;12.20;99.90
8832;DHT22;4452;50.756;4.472;2023-05-29T06:42:00;12.10;99.90
8832;DHT22;4452;50.756;4.472;2023-05-29T06:44:27;12.20;99.90
8832;DHT22;4452;50.756;4.472;2023-05-29T06:46:52;12.50;99.90
8832;DHT22;4452;50.756;4.472;2023-05-29T06:49:18;12.50;99.90
8832;DHT22;4452;50.756;4.472;2023-05-29T06:51:44;12.30;99.90
8832;DHT22;4452;50.756;4.472;2023-05-29T06:54:10;12.70;99.90
8832;DHT22;4452;50.756;4.472;2023-05-29T06:56:37;13.00;99.90
8832;DHT22;4452;50.756;4.472;2023-05-29T06:59:08;12.80;99.90
8832;DHT22;4452;50.756;4.472;2023-05-29T07:01:37;12.50;99.90
8832;DHT22;4452;50.756;4.472;2023-05-29T07:04:05;12.80;99.90
8832;DHT22;4452;50.756;4.472;2023-05-29T07:06:34;13.10;99.90
8832;DHT22;4452;50.756;4.472;2023-05-29T07:09:01;13.20;99.90
8832;DHT22;4452;50.756;4.472;2023-05-29T07:11:27;13.20;99.90
8832;DHT22;4452;50.756;4.472;2023-05-29T07:13:56;12.90;99.90
8832;DHT22;4452;50.756;4.472;2023-05-29T07:16:22;12.90;99.90
8832;DHT22;4452;50.756;4.472;2023-05-29T07:18:47;13.00;99.90
8832;DHT22;4452;50.756;4.472;2023-05-29T07:21:13;12.90;99.90
8832;DHT22;4452;50.756;4.472;2023-05-29T07:23:39;13.10;99.90
8832;DHT22;4452;50.756;4.472;2023-05-29T07:26:05;13.80;99.90
8832;DHT22;4452;50.756;4.472;2023-05-29T07:28:31;14.00;99.90
8832;DHT22;4452;50.756;4.472;2023-05-29T07:30:57;13.80;99.90
8832;DHT22;4452;50.756;4.472;2023-05-29T07:33:23;13.90;99.90
8832;DHT22;4452;50.756;4.472;2023-05-29T07:35:49;13.70;99.90
8832;DHT22;4452;50.756;4.472;2023-05-29T07:38:14;13.70;99.90
8832;DHT22;4452;50.756;4.472;2023-05-29T07:40:40;14.10;99.90
8832;DHT22;4452;50.756;4.472;2023-05-29T07:43:06;14.10;99.90
8832;DHT22;4452;50.756;4.472;2023-05-29T07:45:31;14.00;99.90
8832;DHT22;4452;50.756;4.472;2023-05-29T07:47:57;14.00;99.90
8832;DHT22;4452;50.756;4.472;2023-05-29T07:50:23;13.90;99.90
8832;DHT22;4452;50.756;4.472;2023-05-29T07:52:48;13.70;99.90
8832;DHT22;4452;50.756;4.472;2023-05-29T07:55:14;14.00;99.90
8832;DHT22;4452;50.756;4.472;2023-05-29T07:57:40;14.20;99.90
8832;DHT22;4452;50.756;4.472;2023-05-29T08:00:06;14.10;99.90
8832;DHT22;4452;50.756;4.472;2023-05-29T08:02:33;14.40;99.90
8832;DHT22;4452;50.756;4.472;2023-05-29T08:04:59;14.80;99.90
8832;DHT22;4452;50.756;4.472;2023-05-29T08:07:25;14.60;99.90
8832;DHT22;4452;50.756;4.472;2023-05-29T08:09:52;14.60;99.90
8832;DHT22;4452;50.756;4.472;2023-05-29T08:12:18;14.90;99.90
8832;DHT22;4452;50.756;4.472;2023-05-29T08:14:43;14.70;99.90
8832;DHT22;4452;50.756;4.472;2023-05-29T08:17:10;14.70;99.90
8832;DHT22;4452;50.756;4.472;2023-05-29T08:19:35;14.40;99.90
8832;DHT22;4452;50.756;4.472;2023-05-29T08:22:01;14.70;99.90
8832;DHT22;4452;50.756;4.472;2023-05-29T08:24:27;14.80;99.90
8832;DHT22;4452;50.756;4.472;2023-05-29T08:26:53;14.70;99.90
8832;DHT22;4452;50.756;4.472;2023-05-29T08:29:19;14.90;99.90
8832;DHT22;4452;50.756;4.472;2023-05-29T08:31:45;14.90;99.90
8832;DHT22;4452;50.756;4.472;2023-05-29T08:34:11;15.10;99.90
8832;DHT22;4452;50.756;4.472;2023-05-29T08:36:37;15.50;99.90
8832;DHT22;4452;50.756;4.472;2023-05-29T08:39:03;15.50;99.90
8832;DHT22;4452;50.756;4.472;2023-05-29T08:41:41;15.40;99.90
8832;DHT22;4452;50.756;4.472;2023-05-29T08:44:13;15.30;99.90
8832;DHT22;4452;50.756;4.472;2023-05-29T08:46:43;15.30;99.90
8832;DHT22;4452;50.756;4.472;2023-05-29T08:49:13;15.20;99.90
8832;DHT22;4452;50.756;4.472;2023-05-29T08:51:41;15.20;99.90
8832;DHT22;4452;50.756;4.472;2023-05-29T08:54:10;15.10;99.90
8832;DHT22;4452;50.756;4.472;2023-05-29T08:56:37;15.40;99.90
8832;DHT22;4452;50.756;4.472;2023-05-29T08:59:03;15.80;99.90
8832;DHT22;4452;50.756;4.472;2023-05-29T09:01:28;16.00;99.90
8832;DHT22;4452;50.756;4.472;2023-05-29T09:03:56;16.10;99.90
8832;DHT22;4452;50.756;4.472;2023-05-29T09:06:22;15.70;99.90
8832;DHT22;4452;50.756;4.472;2023-05-29T09:08:51;15.70;99.90
8832;DHT22;4452;50.756;4.472;2023-05-29T09:11:17;15.60;99.90
8832;DHT22;4452;50.756;4.472;2023-05-29T09:13:43;16.10;99.90
8832;DHT22;4452;50.756;4.472;2023-05-29T09:16:09;15.90;99.90
8832;DHT22;4452;50.756;4.472;2023-05-29T09:18:35;16.10;99.90
8832;DHT22;4452;50.756;4.472;2023-05-29T09:21:06;15.90;99.90
8832;DHT22;4452;50.756;4.472;2023-05-29T09:23:34;16.20;99.90
8832;DHT22;4452;50.756;4.472;2023-05-29T09:26:02;16.30;99.90
8832;DHT22;4452;50.756;4.472;2023-05-29T09:28:30;16.20;99.90
8832;DHT22;4452;50.756;4.472;2023-05-29T09:30:56;16.30;99.90
8832;DHT22;4452;50.756;4.472;2023-05-29T09:33:22;16.00;99.90
8832;DHT22;4452;50.756;4.472;2023-05-29T09:35:49;16.00;99.90
8832;DHT22;4452;50.756;4.472;2023-05-29T09:38:17;16.10;99.90
8832;DHT22;4452;50.756;4.472;2023-05-29T09:40:43;16.80;99.90
8832;DHT22;4452;50.756;4.472;2023-05-29T09:43:16;16.70;99.90
8832;DHT22;4452;50.756;4.472;2023-05-29T09:45:44;16.60;99.90
8832;DHT22;4452;50.756;4.472;2023-05-29T09:48:18;16.30;99.90
8832;DHT22;4452;50.756;4.472;2023-05-29T09:50:45;16.30;99.90
8832;DHT22;4452;50.756;4.472;2023-05-29T09:53:17;16.30;99.90
8832;DHT22;4452;50.756;4.472;2023-05-29T09:55:48;16.40;99.90
8832;DHT22;4452;50.756;4.472;2023-05-29T09:58:23;16.60;99.90
8832;DHT22;4452;50.756;4.472;2023-05-29T10:00:50;16.50;99.90
8832;DHT22;4452;50.756;4.472;2023-05-29T10:03:17;16.60;99.90
8832;DHT22;4452;50.756;4.472;2023-05-29T10:05:50;16.50;99.90
8832;DHT22;4452;50.756;4.472;2023-05-29T10:08:18;16.60;99.90
8832;DHT22;4452;50.756;4.472;2023-05-29T10:11:02;16.90;99.90
8832;DHT22;4452;50.756;4.472;2023-05-29T10:13:33;17.20;99.90
8832;DHT22;4452;50.756;4.472;2023-05-29T10:16:01;17.10;99.90
8832;DHT22;4452;50.756;4.472;2023-05-29T10:18:39;17.20;99.90
8832;DHT22;4452;50.756;4.472;2023-05-29T10:21:07;16.90;99.90
8832;DHT22;4452;50.756;4.472;2023-05-29T10:23:37;17.10;99.90
8832;DHT22;4452;50.756;4.472;2023-05-29T10:26:15;16.80;99.90
8832;DHT22;4452;50.756;4.472;2023-05-29T10:34:43;17.80;99.90
8832;DHT22;4452;50.756;4.472;2023-05-29T10:39:49;18.30;99.90
8832;DHT22;4452;50.756;4.472;2023-05-29T10:42:40;18.20;99.90
8832;DHT22;4452;50.756;4.472;2023-05-29T10:45:06;17.90;99.90
8832;DHT22;4452;50.756;4.472;2023-05-29T10:47:32;17.50;99.90
8832;DHT22;4452;50.756;4.472;2023-05-29T10:50:02;17.50;99.90
8832;DHT22;4452;50.756;4.472;2023-05-29T10:52:34;18.00;99.90
8832;DHT22;4452;50.756;4.472;2023-05-29T10:55:01;18.20;99.90
8832;DHT22;4452;50.756;4.472;2023-05-29T10:57:30;18.10;99.90
8832;DHT22;4452;50.756;4.472;2023-05-29T11:00:08;18.10;99.90
8832;DHT22;4452;50.756;4.472;2023-05-29T11:02:44;18.00;99.90
8832;DHT22;4452;50.756;4.472;2023-05-29T11:05:19;18.00;99.90
8832;DHT22;4452;50.756;4.472;2023-05-29T11:07:57;18.40;99.90
8832;DHT22;4452;50.756;4.472;2023-05-29T11:13:23;18.30;99.90
8832;DHT22;4452;50.756;4.472;2023-05-29T11:18:40;18.40;99.90
8832;DHT22;4452;50.756;4.472;2023-05-29T11:21:21;18.30;99.90
8832;DHT22;4452;50.756;4.472;2023-05-29T11:23:50;18.20;99.90
8832;DHT22;4452;50.756;4.472;2023-05-29T11:26:17;18.60;99.90
8832;DHT22;4452;50.756;4.472;2023-05-29T11:28:43;18.70;99.90
8832;DHT22;4452;50.756;4.472;2023-05-29T11:31:09;18.60;99.90
8832;DHT22;4452;50.756;4.472;2023-05-29T11:33:39;18.60;99.90
8832;DHT22;4452;50.756;4.472;2023-05-29T11:36:08;18.70;99.90
8832;DHT22;4452;50.756;4.472;2023-05-29T11:38:36;19.20;99.90
8832;DHT22;4452;50.756;4.472;2023-05-29T11:41:02;18.70;99.90
8832;DHT22;4452;50.756;4.472;2023-05-29T11:43:28;19.00;99.90
8832;DHT22;4452;50.756;4.472;2023-05-29T11:45:54;19.30;99.90
8832;DHT22;4452;50.756;4.472;2023-05-29T11:48:20;19.30;99.90
8832;DHT22;4452;50.756;4.472;2023-05-29T11:50:47;19.20;99.90
8832;DHT22;4452;50.756;4.472;2023-05-29T11:53:12;18.90;99.90
8832;DHT22;4452;50.756;4.472;2023-05-29T11:55:38;18.90;99.90
8832;DHT22;4452;50.756;4.472;2023-05-29T11:58:04;18.90;99.90
8832;DHT22;4452;50.756;4.472;2023-05-29T12:00:34;19.20;99.90
8832;DHT22;4452;50.756;4.472;2023-05-29T12:03:01;19.50;99.90
8832;DHT22;4452;50.756;4.472;2023-05-29T12:05:30;19.70;99.90
8832;DHT22;4452;50.756;4.472;2023-05-29T12:07:56;19.40;99.90
8832;DHT22;4452;50.756;4.472;2023-05-29T12:10:23;19.30;99.90
8832;DHT22;4452;50.756;4.472;2023-05-29T12:12:54;19.40;99.90
8832;DHT22;4452;50.756;4.472;2023-05-29T12:15:23;19.90;99.90
8832;DHT22;4452;50.756;4.472;2023-05-29T12:17:51;20.10;99.90
8832;DHT22;4452;50.756;4.472;2023-05-29T12:20:18;19.70;99.90
8832;DHT22;4452;50.756;4.472;2023-05-29T12:22:45;19.40;99.90
8832;DHT22;4452;50.756;4.472;2023-05-29T12:25:12;19.50;99.90
8832;DHT22;4452;50.756;4.472;2023-05-29T12:27:38;19.40;99.90
8832;DHT22;4452;50.756;4.472;2023-05-29T12:30:12;20.10;99.90
8832;DHT22;4452;50.756;4.472;2023-05-29T12:32:43;19.80;99.90
8832;DHT22;4452;50.756;4.472;2023-05-29T12:40:27;20.20;99.90
8832;DHT22;4452;50.756;4.472;2023-05-29T12:43:01;20.40;99.90
8832;DHT22;4452;50.756;4.472;2023-05-29T12:45:32;19.90;99.90
8832;DHT22;4452;50.756;4.472;2023-05-29T12:48:00;20.40;99.90
8832;DHT22;4452;50.756;4.472;2023-05-29T12:50:33;20.50;99.90
8832;DHT22;4452;50.756;4.472;2023-05-29T12:55:40;20.60;99.90
8832;DHT22;4452;50.756;4.472;2023-05-29T12:58:14;20.50;99.90
8832;DHT22;4452;50.756;4.472;2023-05-29T13:00:42;20.20;99.90
8832;DHT22;4452;50.756;4.472;2023-05-29T13:03:08;21.00;99.90
8832;DHT22;4452;50.756;4.472;2023-05-29T13:05:34;21.40;99.90
8832;DHT22;4452;50.756;4.472;2023-05-29T13:08:00;21.20;99.90
8832;DHT22;4452;50.756;4.472;2023-05-29T13:10:27;21.10;99.90
8832;DHT22;4452;50.756;4.472;2023-05-29T13:12:54;20.50;99.90
8832;DHT22;4452;50.756;4.472;2023-05-29T13:15:23;20.50;99.90
8832;DHT22;4452;50.756;4.472;2023-05-29T13:17:50;20.30;99.90
8832;DHT22;4452;50.756;4.472;2023-05-29T13:20:16;20.20;99.90
8832;DHT22;4452;50.756;4.472;2023-05-29T13:22:43;20.50;99.90
8832;DHT22;4452;50.756;4.472;2023-05-29T13:25:11;21.00;99.90
8832;DHT22;4452;50.756;4.472;2023-05-29T13:27:38;20.80;99.90
8832;DHT22;4452;50.756;4.472;2023-05-29T13:30:05;20.80;99.90
8832;DHT22;4452;50.756;4.472;2023-05-29T13:32:32;21.50;99.90
8832;DHT22;4452;50.756;4.472;2023-05-29T13:34:57;21.40;99.90
8832;DHT22;4452;50.756;4.472;2023-05-29T13:37:24;21.40;99.90
8832;DHT22;4452;50.756;4.472;2023-05-29T13:39:49;21.70;99.90
8832;DHT22;4452;50.756;4.472;2023-05-29T13:42:18;21.30;99.90
8832;DHT22;4452;50.756;4.472;2023-05-29T13:44:44;21.60;99.90
8832;DHT22;4452;50.756;4.472;2023-05-29T13:47:09;21.70;99.90
8832;DHT22;4452;50.756;4.472;2023-05-29T13:49:35;22.20;99.90
8832;DHT22;4452;50.756;4.472;2023-05-29T13:52:03;21.70;99.90
8832;DHT22;4452;50.756;4.472;2023-05-29T13:54:34;21.80;99.90
8832;DHT22;4452;50.756;4.472;2023-05-29T13:57:05;22.10;99.90
8832;DHT22;4452;50.756;4.472;2023-05-29T13:59:34;22.30;99.90
8832;DHT22;4452;50.756;4.472;2023-05-29T14:02:01;22.30;99.90
8832;DHT22;4452;50.756;4.472;2023-05-29T14:04:29;21.80;99.90
8832;DHT22;4452;50.756;4.472;2023-05-29T14:06:55;22.00;99.90
8832;DHT22;4452;50.756;4.472;2023-05-29T14:09:22;22.00;99.90
8832;DHT22;4452;50.756;4.472;2023-05-29T14:11:59;22.20;99.90
8832;DHT22;4452;50.756;4.472;2023-05-29T14:14:25;22.60;99.90
8832;DHT22;4452;50.756;4.472;2023-05-29T14:16:51;22.30;99.90
8832;DHT22;4452;50.756;4.472;2023-05-29T14:19:18;21.60;99.90
8832;DHT22;4452;50.756;4.472;2023-05-29T14:21:44;22.40;99.90
8832;DHT22;4452;50.756;4.472;2023-05-29T14:24:10;22.20;99.90
8832;DHT22;4452;50.756;4.472;2023-05-29T14:26:36;22.60;99.90
8832;DHT22;4452;50.756;4.472;2023-05-29T14:29:02;23.10;99.90
8832;DHT22;4452;50.756;4.472;2023-05-29T14:31:28;22.40;99.90
8832;DHT22;4452;50.756;4.472;2023-05-29T14:33:54;22.80;99.90
8832;DHT22;4452;50.756;4.472;2023-05-29T14:36:19;22.10;99.90
8832;DHT22;4452;50.756;4.472;2023-05-29T14:38:45;22.00;99.90
8832;DHT22;4452;50.756;4.472;2023-05-29T14:41:11;22.20;99.90
8832;DHT22;4452;50.756;4.472;2023-05-29T14:43:42;21.90;99.90
8832;DHT22;4452;50.756;4.472;2023-05-29T14:46:08;21.50;99.90
8832;DHT22;4452;50.756;4.472;2023-05-29T14:48:33;22.00;99.90
8832;DHT22;4452;50.756;4.472;2023-05-29T14:50:59;22.20;99.90
8832;DHT22;4452;50.756;4.472;2023-05-29T14:53:25;22.30;99.90
8832;DHT22;4452;50.756;4.472;2023-05-29T14:55:50;21.60;99.90
8832;DHT22;4452;50.756;4.472;2023-05-29T14:58:16;21.50;99.90
8832;DHT22;4452;50.756;4.472;2023-05-29T15:00:42;21.80;99.90
8832;DHT22;4452;50.756;4.472;2023-05-29T15:03:07;21.80;99.90
8832;DHT22;4452;50.756;4.472;2023-05-29T15:05:33;21.50;99.90
8832;DHT22;4452;50.756;4.472;2023-05-29T15:07:58;21.80;99.90
8832;DHT22;4452;50.756;4.472;2023-05-29T15:10:25;22.20;99.90
8832;DHT22;4452;50.756;4.472;2023-05-29T15:12:52;21.90;99.90
8832;DHT22;4452;50.756;4.472;2023-05-29T15:15:23;21.80;99.90
8832;DHT22;4452;50.756;4.472;2023-05-29T15:17:49;21.50;99.90
8832;DHT22;4452;50.756;4.472;2023-05-29T15:20:19;22.20;99.90
8832;DHT22;4452;50.756;4.472;2023-05-29T15:22:45;21.60;99.90
8832;DHT22;4452;50.756;4.472;2023-05-29T15:25:11;21.80;99.90
8832;DHT22;4452;50.756;4.472;2023-05-29T15:27:37;21.50;99.90
8832;DHT22;4452;50.756;4.472;2023-05-29T15:30:14;21.70;99.90
8832;DHT22;4452;50.756;4.472;2023-05-29T15:32:41;21.50;99.90
8832;DHT22;4452;50.756;4.472;2023-05-29T15:35:08;21.50;99.90
8832;DHT22;4452;50.756;4.472;2023-05-29T15:37:34;21.30;99.90
8832;DHT22;4452;50.756;4.472;2023-05-29T15:40:00;21.10;99.90
8832;DHT22;4452;50.756;4.472;2023-05-29T15:42:26;21.30;99.90
8832;DHT22;4452;50.756;4.472;2023-05-29T15:44:52;21.10;99.90
8832;DHT22;4452;50.756;4.472;2023-05-29T15:47:17;20.80;99.90
8832;DHT22;4452;50.756;4.472;2023-05-29T15:49:43;20.90;99.90
8832;DHT22;4452;50.756;4.472;2023-05-29T15:52:09;20.70;99.90
8832;DHT22;4452;50.756;4.472;2023-05-29T15:54:34;20.20;99.90
8832;DHT22;4452;50.756;4.472;2023-05-29T15:57:00;20.30;99.90
8832;DHT22;4452;50.756;4.472;2023-05-29T15:59:31;20.70;99.90
8832;DHT22;4452;50.756;4.472;2023-05-29T16:01:57;20.40;99.90
8832;DHT22;4452;50.756;4.472;2023-05-29T16:04:23;20.10;99.90
8832;DHT22;4452;50.756;4.472;2023-05-29T16:06:48;20.30;99.90
8832;DHT22;4452;50.756;4.472;2023-05-29T16:09:14;20.10;99.90
8832;DHT22;4452;50.756;4.472;2023-05-29T16:11:40;20.00;99.90
8832;DHT22;4452;50.756;4.472;2023-05-29T16:14:07;20.10;99.90
8832;DHT22;4452;50.756;4.472;2023-05-29T16:16:33;19.90;99.90
8832;DHT22;4452;50.756;4.472;2023-05-29T16:19:00;20.20;99.90
8832;DHT22;4452;50.756;4.472;2023-05-29T16:21:25;20.00;99.90
8832;DHT22;4452;50.756;4.472;2023-05-29T16:23:52;20.10;99.90
8832;DHT22;4452;50.756;4.472;2023-05-29T16:26:24;19.90;99.90
8832;DHT22;4452;50.756;4.472;2023-05-29T16:28:52;19.70;99.90
8832;DHT22;4452;50.756;4.472;2023-05-29T16:31:18;19.80;99.90